Time;durP1;ratioP1;P1;durP2;ratioP2;P2;SDS_P1;SDS_P2;PMS_P1;PMS_P2;Temp;Humidity;BMP_temperature;BMP_pressure;BME280_temperature;BME280_humidity;BME280_pressure;Samples;Min_cycle;Max_cycle;Signal;HPM_P1;HPM_P2
2021/09/22 00:00:16;;;;;;;12.43;7.30;;;;;;;;;;5052467;28;20159;-53
2021/09/22 00:02:42;;;;;;;12.20;7.20;;;;;;;;;;5052517;28;20028;-52
2021/09/22 00:05:09;;;;;;;14.02;6.20;;;;;;;;;;5053863;28;20021;-52
2021/09/22 00:07:35;;;;;;;15.15;6.47;;;;;;;;;;5056267;28;20025;-53
2021/09/22 00:10:01;;;;;;;13.43;6.82;;;;;;;;;;5056415;28;20029;-52
2021/09/22 00:12:27;;;;;;;11.27;6.70;;;;;;;;;;5037890;28;20347;-53
2021/09/22 00:14:53;;;;;;;12.88;6.47;;;;;;;;;;5035266;28;20030;-53
2021/09/22 00:17:19;;;;;;;12.77;6.85;;;;;;;;;;5036647;28;20028;-53
2021/09/22 00:19:45;;;;;;;12.73;6.40;;;;;;;;;;5035989;28;20041;-53
2021/09/22 00:22:11;;;;;;;12.88;5.95;;;;;;;;;;5036180;28;20029;-53
2021/09/22 00:24:37;;;;;;;10.45;5.78;;;;;;;;;;5035730;28;20025;-53
2021/09/22 00:27:03;;;;;;;11.73;6.63;;;;;;;;;;5035477;28;20025;-53
2021/09/22 00:29:30;;;;;;;14.23;7.20;;;;;;;;;;5035976;28;20021;-53
2021/09/22 00:31:56;;;;;;;15.68;6.95;;;;;;;;;;5035698;28;20026;-52
2021/09/22 00:34:22;;;;;;;13.77;6.45;;;;;;;;;;5035435;28;20072;-52
2021/09/22 00:36:49;;;;;;;14.63;6.93;;;;;;;;;;5035296;28;20340;-53
2021/09/22 00:39:15;;;;;;;10.93;6.13;;;;;;;;;;5052507;28;20029;-52
2021/09/22 00:41:41;;;;;;;17.65;6.53;;;;;;;;;;5055325;28;20103;-53
2021/09/22 00:44:07;;;;;;;11.23;6.25;;;;;;;;;;5054933;28;20350;-53
2021/09/22 00:46:33;;;;;;;13.63;5.97;;;;;;;;;;5055611;28;20028;-52
2021/09/22 00:48:59;;;;;;;10.45;6.18;;;;;;;;;;5055969;28;20029;-52
2021/09/22 00:51:25;;;;;;;13.82;8.18;;;;;;;;;;5055341;28;20033;-52
2021/09/22 00:53:52;;;;;;;13.63;6.82;;;;;;;;;;5054903;28;20100;-52
2021/09/22 00:56:18;;;;;;;13.90;7.07;;;;;;;;;;5055622;28;20036;-52
2021/09/22 00:58:44;;;;;;;12.23;6.70;;;;;;;;;;5054745;28;20100;-53
2021/09/22 01:01:10;;;;;;;10.30;6.18;;;;;;;;;;5055790;28;20124;-52
2021/09/22 01:03:36;;;;;;;13.80;6.32;;;;;;;;;;5054519;28;20116;-53
2021/09/22 01:06:02;;;;;;;13.45;6.88;;;;;;;;;;5055359;28;20025;-53
2021/09/22 01:08:30;;;;;;;14.43;7.18;;;;;;;;;;5055078;28;20500;-52
2021/09/22 01:10:56;;;;;;;20.73;7.18;;;;;;;;;;5055080;28;20025;-53
2021/09/22 01:13:22;;;;;;;14.00;6.60;;;;;;;;;;5054958;28;20079;-52
2021/09/22 01:15:49;;;;;;;16.27;6.90;;;;;;;;;;5053816;28;20032;-52
2021/09/22 01:18:16;;;;;;;10.93;6.40;;;;;;;;;;5055148;28;20060;-53
2021/09/22 01:20:44;;;;;;;15.60;6.30;;;;;;;;;;5055009;28;20096;-52
2021/09/22 01:23:10;;;;;;;13.65;6.35;;;;;;;;;;5055123;28;20017;-52
2021/09/22 01:25:45;;;;;;;11.73;6.15;;;;;;;;;;5053535;28;20340;-53
2021/09/22 01:28:11;;;;;;;16.42;7.15;;;;;;;;;;5054921;28;20029;-53
2021/09/22 01:30:38;;;;;;;14.30;6.90;;;;;;;;;;5055139;28;20032;-53
2021/09/22 01:33:06;;;;;;;14.93;6.78;;;;;;;;;;5055120;28;20021;-53
2021/09/22 01:35:33;;;;;;;13.90;6.65;;;;;;;;;;5053805;28;20025;-53
2021/09/22 01:37:59;;;;;;;15.38;7.07;;;;;;;;;;5054459;28;20021;-53
2021/09/22 01:40:25;;;;;;;16.75;7.47;;;;;;;;;;5054774;28;20036;-53
2021/09/22 01:42:51;;;;;;;12.80;7.25;;;;;;;;;;5054210;28;20106;-53
2021/09/22 01:45:17;;;;;;;12.75;6.22;;;;;;;;;;5054281;28;20431;-53
2021/09/22 01:47:44;;;;;;;11.80;6.63;;;;;;;;;;5054427;28;20443;-52
2021/09/22 01:50:10;;;;;;;11.57;6.22;;;;;;;;;;5054358;28;20450;-53
2021/09/22 01:52:36;;;;;;;10.60;6.03;;;;;;;;;;5054145;28;20445;-52
2021/09/22 01:55:03;;;;;;;10.55;6.30;;;;;;;;;;5053465;28;20079;-53
2021/09/22 01:57:29;;;;;;;14.52;7.00;;;;;;;;;;5054300;28;20017;-52
2021/09/22 01:59:55;;;;;;;14.77;6.63;;;;;;;;;;5053927;28;20025;-52
2021/09/22 02:02:21;;;;;;;15.13;7.10;;;;;;;;;;5054477;28;20447;-53
2021/09/22 02:04:47;;;;;;;14.25;6.25;;;;;;;;;;5053635;28;20024;-53
2021/09/22 02:07:13;;;;;;;10.50;6.07;;;;;;;;;;5052826;28;20084;-53
2021/09/22 02:09:39;;;;;;;12.75;7.07;;;;;;;;;;5039720;28;20039;-53
2021/09/22 02:12:06;;;;;;;11.98;6.03;;;;;;;;;;5037422;28;20112;-53
2021/09/22 02:14:32;;;;;;;10.90;6.13;;;;;;;;;;5032809;28;20120;-52
2021/09/22 02:16:58;;;;;;;18.10;7.07;;;;;;;;;;5034208;28;20113;-52
2021/09/22 02:19:24;;;;;;;12.07;6.88;;;;;;;;;;5034001;28;20026;-53
2021/09/22 02:21:51;;;;;;;10.35;6.35;;;;;;;;;;5034205;28;20030;-52
2021/09/22 02:24:17;;;;;;;11.10;6.57;;;;;;;;;;5033044;28;20108;-52
2021/09/22 02:26:43;;;;;;;11.95;6.72;;;;;;;;;;5033575;28;20026;-52
2021/09/22 02:29:09;;;;;;;14.50;6.97;;;;;;;;;;5033553;28;20037;-52
2021/09/22 02:31:35;;;;;;;15.93;7.63;;;;;;;;;;5033935;28;20151;-52
2021/09/22 02:34:02;;;;;;;11.75;6.75;;;;;;;;;;5033088;28;20351;-53
2021/09/22 02:36:28;;;;;;;10.68;6.35;;;;;;;;;;5033192;28;20112;-53
2021/09/22 02:38:55;;;;;;;14.82;6.43;;;;;;;;;;5047225;28;20464;-52
2021/09/22 02:41:21;;;;;;;12.85;6.70;;;;;;;;;;5053722;28;20314;-52
2021/09/22 02:43:47;;;;;;;13.10;7.05;;;;;;;;;;5052979;28;20025;-53
2021/09/22 02:46:13;;;;;;;13.30;6.38;;;;;;;;;;5053389;28;20112;-53
2021/09/22 02:48:39;;;;;;;16.55;7.40;;;;;;;;;;5053070;28;20573;-52
2021/09/22 02:51:05;;;;;;;11.27;6.75;;;;;;;;;;5053403;28;20037;-52
2021/09/22 02:53:31;;;;;;;12.30;6.57;;;;;;;;;;5052837;28;20116;-53
2021/09/22 02:55:57;;;;;;;10.52;6.25;;;;;;;;;;5053183;28;20350;-53
2021/09/22 02:58:23;;;;;;;17.83;7.20;;;;;;;;;;5043019;28;20040;-53
2021/09/22 03:00:49;;;;;;;9.93;6.03;;;;;;;;;;5052864;28;20032;-52
2021/09/22 03:03:15;;;;;;;11.63;6.63;;;;;;;;;;5052923;28;20107;-52
2021/09/22 03:05:42;;;;;;;14.65;7.07;;;;;;;;;;5052192;28;20029;-52
2021/09/22 03:08:08;;;;;;;14.95;7.05;;;;;;;;;;5053146;28;20020;-52
2021/09/22 03:10:34;;;;;;;14.35;7.03;;;;;;;;;;5053116;28;20020;-53
2021/09/22 03:13:00;;;;;;;16.40;7.47;;;;;;;;;;5053223;28;20017;-53
2021/09/22 03:15:27;;;;;;;12.73;7.30;;;;;;;;;;5052300;28;20017;-52
2021/09/22 03:17:53;;;;;;;11.65;7.45;;;;;;;;;;5052376;28;20017;-53
2021/09/22 03:20:19;;;;;;;14.10;6.47;;;;;;;;;;5052625;28;20041;-53
2021/09/22 03:22:45;;;;;;;12.32;6.38;;;;;;;;;;5052886;28;20059;-52
2021/09/22 03:25:11;;;;;;;12.40;6.57;;;;;;;;;;5044909;28;20132;-53
2021/09/22 03:27:38;;;;;;;11.73;6.90;;;;;;;;;;5036421;28;20022;-52
2021/09/22 03:30:05;;;;;;;15.38;7.13;;;;;;;;;;5032541;28;20025;-52
2021/09/22 03:32:31;;;;;;;17.42;6.70;;;;;;;;;;5044556;28;20043;-53
2021/09/22 03:34:57;;;;;;;14.68;6.65;;;;;;;;;;5052093;28;20025;-53
2021/09/22 03:37:23;;;;;;;13.15;7.05;;;;;;;;;;5052411;28;20032;-52
2021/09/22 03:39:49;;;;;;;12.18;7.13;;;;;;;;;;5051977;28;20033;-53
2021/09/22 03:42:15;;;;;;;16.33;7.28;;;;;;;;;;5052386;28;20354;-53
2021/09/22 03:44:41;;;;;;;12.80;7.15;;;;;;;;;;5051855;28;20060;-53
2021/09/22 03:47:07;;;;;;;12.20;6.93;;;;;;;;;;5052353;28;20094;-53
2021/09/22 03:49:33;;;;;;;12.02;7.30;;;;;;;;;;5052746;28;20025;-53
2021/09/22 03:51:59;;;;;;;12.32;6.85;;;;;;;;;;5052548;28;20021;-53
2021/09/22 03:54:25;;;;;;;11.65;6.95;;;;;;;;;;5051254;28;20039;-52
2021/09/22 03:56:51;;;;;;;14.90;7.07;;;;;;;;;;5052375;28;20028;-52
2021/09/22 03:59:17;;;;;;;12.55;6.53;;;;;;;;;;5052312;28;20028;-52
2021/09/22 04:01:43;;;;;;;13.10;6.25;;;;;;;;;;5052350;28;20060;-52
2021/09/22 04:04:10;;;;;;;13.05;6.97;;;;;;;;;;5051360;28;20025;-53
2021/09/22 04:06:36;;;;;;;15.52;7.10;;;;;;;;;;5052664;28;20075;-53
2021/09/22 04:09:03;;;;;;;15.07;6.13;;;;;;;;;;5052017;28;20354;-53
2021/09/22 04:11:29;;;;;;;14.68;6.90;;;;;;;;;;5042135;28;20052;-53
2021/09/22 04:13:55;;;;;;;13.07;6.60;;;;;;;;;;5031824;28;20084;-52
2021/09/22 04:16:21;;;;;;;14.10;7.65;;;;;;;;;;5032071;28;20029;-52
2021/09/22 04:18:47;;;;;;;11.30;6.45;;;;;;;;;;5032280;28;20076;-52
2021/09/22 04:21:13;;;;;;;12.70;6.38;;;;;;;;;;5032601;28;20029;-53
2021/09/22 04:23:39;;;;;;;15.02;7.72;;;;;;;;;;5031394;28;20025;-52
2021/09/22 04:26:05;;;;;;;12.82;7.40;;;;;;;;;;5032401;28;20065;-53
2021/09/22 04:28:31;;;;;;;13.02;7.07;;;;;;;;;;5032090;28;20124;-52
2021/09/22 04:30:57;;;;;;;15.43;7.15;;;;;;;;;;5030842;28;20101;-52
2021/09/22 04:33:23;;;;;;;13.15;6.97;;;;;;;;;;5031963;28;20108;-50
2021/09/22 04:35:51;;;;;;;14.60;7.75;;;;;;;;;;5031190;28;20474;-50
2021/09/22 04:38:17;;;;;;;16.58;6.88;;;;;;;;;;5040525;28;20159;-50
2021/09/22 04:40:43;;;;;;;14.23;6.70;;;;;;;;;;5051626;28;20476;-50
2021/09/22 04:43:09;;;;;;;16.33;8.02;;;;;;;;;;5052067;28;20458;-49
2021/09/22 04:45:36;;;;;;;17.27;7.68;;;;;;;;;;5051639;28;20162;-50
2021/09/22 04:48:02;;;;;;;13.52;7.10;;;;;;;;;;5052319;28;20028;-50
2021/09/22 04:50:29;;;;;;;12.95;7.00;;;;;;;;;;5052019;28;20359;-50
2021/09/22 04:52:55;;;;;;;13.45;6.50;;;;;;;;;;5054920;28;20407;-50
2021/09/22 04:55:21;;;;;;;12.45;6.45;;;;;;;;;;5055092;28;20025;-50
2021/09/22 04:57:47;;;;;;;11.93;7.05;;;;;;;;;;5055470;28;20044;-50
2021/09/22 05:00:14;;;;;;;12.45;7.10;;;;;;;;;;5055639;28;20068;-50
2021/09/22 05:02:40;;;;;;;14.07;6.75;;;;;;;;;;5055233;28;20025;-50
2021/09/22 05:05:06;;;;;;;12.90;6.78;;;;;;;;;;5054268;28;20033;-50
2021/09/22 05:07:32;;;;;;;15.77;7.90;;;;;;;;;;5055160;28;20104;-50
2021/09/22 05:09:58;;;;;;;20.75;7.53;;;;;;;;;;5055347;28;20109;-50
2021/09/22 05:12:24;;;;;;;17.67;7.10;;;;;;;;;;5037678;28;20032;-50
2021/09/22 05:14:50;;;;;;;16.75;7.45;;;;;;;;;;5034813;28;20025;-50
2021/09/22 05:17:16;;;;;;;14.05;6.65;;;;;;;;;;5035620;28;20104;-50
2021/09/22 05:19:42;;;;;;;19.48;7.18;;;;;;;;;;5034146;28;20125;-50
2021/09/22 05:22:08;;;;;;;11.93;7.22;;;;;;;;;;5035243;28;20026;-50
2021/09/22 05:24:34;;;;;;;14.23;6.80;;;;;;;;;;5034450;28;20103;-50
2021/09/22 05:27:00;;;;;;;11.82;6.10;;;;;;;;;;5035147;28;20072;-50
2021/09/22 05:29:26;;;;;;;11.32;5.93;;;;;;;;;;5035070;28;20061;-50
2021/09/22 05:31:52;;;;;;;14.57;7.57;;;;;;;;;;5049271;28;20025;-49
2021/09/22 05:34:18;;;;;;;16.73;8.35;;;;;;;;;;5053641;28;20025;-50
2021/09/22 05:36:44;;;;;;;14.75;7.43;;;;;;;;;;5055008;28;20035;-50
2021/09/22 05:39:10;;;;;;;20.23;8.05;;;;;;;;;;5054840;28;20025;-50
2021/09/22 05:41:36;;;;;;;12.95;7.43;;;;;;;;;;5054694;28;20410;-50
2021/09/22 05:44:02;;;;;;;12.15;7.07;;;;;;;;;;5053415;28;20085;-50
2021/09/22 05:46:28;;;;;;;13.38;6.43;;;;;;;;;;5054523;28;20029;-50
2021/09/22 05:48:54;;;;;;;17.77;7.55;;;;;;;;;;5054629;28;20327;-50
2021/09/22 05:51:20;;;;;;;14.25;7.15;;;;;;;;;;5047660;28;20029;-50
2021/09/22 05:53:48;;;;;;;16.40;7.75;;;;;;;;;;5039768;28;20041;-50
2021/09/22 05:56:14;;;;;;;15.75;7.85;;;;;;;;;;5042243;28;20037;-50
2021/09/22 05:58:40;;;;;;;15.32;7.60;;;;;;;;;;5033678;28;20029;-50
2021/09/22 06:01:06;;;;;;;16.95;7.57;;;;;;;;;;5053665;28;20132;-50
2021/09/22 06:03:34;;;;;;;14.35;7.35;;;;;;;;;;5052276;28;20024;-50
2021/09/22 06:06:00;;;;;;;14.32;7.13;;;;;;;;;;5053493;28;20355;-50
2021/09/22 06:08:26;;;;;;;24.63;8.00;;;;;;;;;;5053982;28;20025;-50
2021/09/22 06:10:52;;;;;;;17.13;8.32;;;;;;;;;;5048782;28;20044;-50
2021/09/22 06:13:18;;;;;;;13.02;7.13;;;;;;;;;;5033348;28;20519;-50
2021/09/22 06:15:44;;;;;;;17.50;8.10;;;;;;;;;;5033167;28;20466;-50
2021/09/22 06:18:10;;;;;;;14.07;7.85;;;;;;;;;;5033666;28;20018;-50
2021/09/22 06:20:36;;;;;;;12.85;6.57;;;;;;;;;;5032922;28;20532;-50
2021/09/22 06:23:02;;;;;;;15.18;7.38;;;;;;;;;;5034277;28;20017;-50
2021/09/22 06:25:28;;;;;;;13.15;6.75;;;;;;;;;;5052421;28;20025;-50
2021/09/22 06:27:54;;;;;;;13.18;7.40;;;;;;;;;;5053299;28;20044;-50
2021/09/22 06:30:20;;;;;;;14.93;7.20;;;;;;;;;;5053660;28;20029;-51
2021/09/22 06:32:46;;;;;;;15.13;7.60;;;;;;;;;;5053177;28;20021;-51
2021/09/22 06:35:12;;;;;;;18.30;8.23;;;;;;;;;;5052261;28;20052;-51
2021/09/22 06:37:39;;;;;;;16.45;8.60;;;;;;;;;;5053002;28;20017;-51
2021/09/22 06:40:06;;;;;;;15.70;7.43;;;;;;;;;;5053554;28;20029;-50
2021/09/22 06:42:32;;;;;;;13.25;7.40;;;;;;;;;;5053321;28;20025;-50
2021/09/22 06:44:58;;;;;;;18.40;8.50;;;;;;;;;;5052009;28;20024;-51
2021/09/22 06:47:24;;;;;;;15.73;7.50;;;;;;;;;;5053419;28;20450;-51
2021/09/22 06:49:50;;;;;;;15.05;8.23;;;;;;;;;;5052519;28;20067;-51
2021/09/22 06:52:16;;;;;;;17.42;8.13;;;;;;;;;;5053381;28;20017;-51
2021/09/22 06:54:42;;;;;;;13.60;7.40;;;;;;;;;;5052250;28;20066;-50
2021/09/22 06:57:08;;;;;;;15.38;8.48;;;;;;;;;;5053214;28;20024;-51
2021/09/22 06:59:34;;;;;;;14.27;8.13;;;;;;;;;;5052649;28;20469;-50
2021/09/22 07:02:00;;;;;;;15.52;8.30;;;;;;;;;;5052775;28;20515;-50
2021/09/22 07:04:26;;;;;;;15.20;7.95;;;;;;;;;;5052415;28;20032;-51
2021/09/22 07:06:52;;;;;;;11.15;6.05;;;;;;;;;;5051891;28;20031;-51
2021/09/22 07:09:18;;;;;;;13.63;7.32;;;;;;;;;;5052961;28;20025;-51
2021/09/22 07:11:44;;;;;;;15.60;7.43;;;;;;;;;;5052601;28;20033;-50
2021/09/22 07:14:10;;;;;;;13.25;7.75;;;;;;;;;;5051609;28;20025;-51
2021/09/22 07:16:36;;;;;;;14.80;7.53;;;;;;;;;;5052548;28;20040;-50
2021/09/22 07:19:02;;;;;;;14.80;8.32;;;;;;;;;;5052751;28;20111;-50
2021/09/22 07:21:28;;;;;;;15.43;8.90;;;;;;;;;;5051814;28;20033;-51
2021/09/22 07:23:54;;;;;;;17.60;9.30;;;;;;;;;;5052155;28;20319;-51
2021/09/22 07:26:20;;;;;;;13.55;7.88;;;;;;;;;;5052991;28;20025;-51
2021/09/22 07:28:46;;;;;;;19.50;8.85;;;;;;;;;;5052264;28;20032;-50
2021/09/22 07:31:12;;;;;;;22.75;10.15;;;;;;;;;;5052074;28;20057;-51
2021/09/22 07:33:38;;;;;;;14.32;8.50;;;;;;;;;;5051993;28;20045;-51
2021/09/22 07:36:06;;;;;;;17.35;8.57;;;;;;;;;;5052274;28;20331;-51
2021/09/22 07:38:32;;;;;;;15.98;8.13;;;;;;;;;;5052786;28;20029;-51
2021/09/22 07:40:58;;;;;;;18.73;10.00;;;;;;;;;;5050755;28;20090;-51
2021/09/22 07:43:24;;;;;;;20.15;11.48;;;;;;;;;;5051823;28;20028;-51
2021/09/22 07:45:51;;;;;;;23.15;10.27;;;;;;;;;;5052515;28;20033;-51
2021/09/22 07:48:17;;;;;;;13.30;7.93;;;;;;;;;;5052760;28;20045;-51
2021/09/22 07:50:43;;;;;;;18.42;8.40;;;;;;;;;;5052074;28;20025;-51
2021/09/22 07:53:09;;;;;;;16.55;8.60;;;;;;;;;;5052434;28;20104;-51
2021/09/22 07:55:35;;;;;;;22.27;9.38;;;;;;;;;;5052069;28;20056;-51
2021/09/22 07:58:01;;;;;;;17.92;8.68;;;;;;;;;;5051629;28;20017;-51
2021/09/22 08:00:27;;;;;;;13.63;7.88;;;;;;;;;;5052423;28;20033;-51
2021/09/22 08:02:58;;;;;;;17.35;8.13;;;;;;;;;;5052421;28;20382;-51
2021/09/22 08:05:25;;;;;;;20.65;10.32;;;;;;;;;;5051302;28;20037;-51
2021/09/22 08:07:51;;;;;;;22.65;11.98;;;;;;;;;;5052101;28;20029;-51
2021/09/22 08:10:17;;;;;;;21.00;10.68;;;;;;;;;;5052007;28;20036;-50
2021/09/22 08:12:43;;;;;;;21.85;12.43;;;;;;;;;;5050321;28;20354;-51
2021/09/22 08:15:10;;;;;;;14.50;8.38;;;;;;;;;;5051807;28;20036;-51
2021/09/22 08:17:37;;;;;;;16.95;9.18;;;;;;;;;;5051705;28;20025;-50
2021/09/22 08:20:03;;;;;;;23.45;12.23;;;;;;;;;;5051787;28;20031;-51
2021/09/22 08:22:29;;;;;;;24.50;12.60;;;;;;;;;;5051845;28;20108;-51
2021/09/22 08:24:55;;;;;;;22.95;11.55;;;;;;;;;;5052115;28;20099;-51
2021/09/22 08:27:22;;;;;;;18.83;10.07;;;;;;;;;;5055395;28;20032;-51
2021/09/22 08:29:48;;;;;;;18.55;9.48;;;;;;;;;;5055518;28;20530;-51
2021/09/22 08:32:14;;;;;;;20.67;10.57;;;;;;;;;;5056074;28;20512;-50
2021/09/22 08:34:40;;;;;;;21.75;10.27;;;;;;;;;;5054974;28;20025;-50
2021/09/22 08:37:06;;;;;;;20.92;11.20;;;;;;;;;;5055774;28;20079;-50
2021/09/22 08:39:33;;;;;;;18.15;8.52;;;;;;;;;;5055530;28;20021;-51
2021/09/22 08:42:00;;;;;;;13.13;7.60;;;;;;;;;;5054751;28;20448;-51
2021/09/22 08:44:26;;;;;;;14.95;9.05;;;;;;;;;;5055177;28;20025;-51
2021/09/22 08:46:52;;;;;;;16.30;9.40;;;;;;;;;;5055770;28;20090;-50
2021/09/22 08:49:18;;;;;;;12.05;6.95;;;;;;;;;;5054612;28;20394;-51
2021/09/22 08:51:45;;;;;;;13.63;7.93;;;;;;;;;;5044608;28;20438;-50
2021/09/22 08:54:12;;;;;;;11.63;6.78;;;;;;;;;;5048723;28;20018;-50
2021/09/22 08:56:38;;;;;;;13.80;6.78;;;;;;;;;;5034889;28;20030;-51
2021/09/22 08:59:05;;;;;;;14.48;8.63;;;;;;;;;;5052564;28;20017;-50
2021/09/22 09:01:31;;;;;;;17.67;7.88;;;;;;;;;;5054916;28;20402;-50
2021/09/22 09:03:58;;;;;;;10.93;6.70;;;;;;;;;;5054258;28;20032;-51
2021/09/22 09:06:24;;;;;;;9.10;5.65;;;;;;;;;;5055611;28;20024;-50
2021/09/22 09:08:51;;;;;;;10.50;5.00;;;;;;;;;;5054336;28;20021;-51
2021/09/22 09:11:23;;;;;;;11.05;5.97;;;;;;;;;;5054710;28;20029;-50
2021/09/22 09:13:51;;;;;;;8.02;4.70;;;;;;;;;;5053908;28;20061;-51
2021/09/22 09:16:22;;;;;;;11.68;5.22;;;;;;;;;;5054977;28;20112;-51
2021/09/22 09:18:50;;;;;;;12.05;5.65;;;;;;;;;;5054297;28;20029;-51
2021/09/22 09:21:16;;;;;;;10.77;5.78;;;;;;;;;;5054535;28;20037;-50
2021/09/22 09:23:49;;;;;;;9.25;5.38;;;;;;;;;;5053876;28;20889;-50
2021/09/22 09:26:17;;;;;;;7.35;4.90;;;;;;;;;;5054030;28;20358;-50
2021/09/22 09:28:48;;;;;;;10.13;5.63;;;;;;;;;;5055089;28;20521;-50
2021/09/22 09:31:14;;;;;;;8.40;4.53;;;;;;;;;;5054581;28;20052;-50
2021/09/22 09:33:40;;;;;;;11.82;5.45;;;;;;;;;;5053571;28;20031;-50
2021/09/22 09:36:24;;;;;;;12.98;5.95;;;;;;;;;;5054454;28;20407;-51
2021/09/22 09:38:54;;;;;;;11.50;6.07;;;;;;;;;;5053698;28;20512;-50
2021/09/22 09:41:25;;;;;;;8.05;4.57;;;;;;;;;;5054315;28;20091;-50
2021/09/22 09:43:51;;;;;;;;;;;;;;;;;;5054196;28;20032;-50
2021/09/22 09:46:20;;;;;;;9.50;4.85;;;;;;;;;;5054624;28;20334;-51
2021/09/22 09:48:53;;;;;;;7.53;4.00;;;;;;;;;;5052427;28;20510;-51
2021/09/22 09:51:20;;;;;;;10.18;5.38;;;;;;;;;;5054802;28;20450;-50
2021/09/22 09:53:46;;;;;;;7.85;5.10;;;;;;;;;;5053330;28;20481;-50
2021/09/22 09:56:18;;;;;;;12.52;5.72;;;;;;;;;;5053919;28;20027;-50
2021/09/22 09:58:47;;;;;;;8.77;4.88;;;;;;;;;;5054340;28;20071;-50
2021/09/22 10:01:13;;;;;;;9.63;5.50;;;;;;;;;;5054603;28;20095;-50
2021/09/22 10:03:39;;;;;;;8.02;4.38;;;;;;;;;;5052868;28;20029;-50
2021/09/22 10:06:06;;;;;;;9.10;4.90;;;;;;;;;;5054094;28;20047;-50
2021/09/22 10:08:32;;;;;;;8.23;4.45;;;;;;;;;;5054203;28;20013;-50
2021/09/22 10:11:03;;;;;;;5.70;3.47;;;;;;;;;;5047718;28;20075;-51
2021/09/22 10:13:29;;;;;;;10.63;4.72;;;;;;;;;;5033535;28;20039;-50
2021/09/22 10:15:55;;;;;;;5.57;3.67;;;;;;;;;;5033562;28;20041;-50
2021/09/22 10:18:21;;;;;;;7.70;4.07;;;;;;;;;;5033475;28;20436;-50
2021/09/22 10:20:49;;;;;;;7.18;3.55;;;;;;;;;;5033978;28;20044;-50
2021/09/22 10:23:15;;;;;;;11.05;3.65;;;;;;;;;;5034071;28;20014;-50
2021/09/22 10:25:41;;;;;;;5.32;3.85;;;;;;;;;;5032419;28;20030;-50
2021/09/22 10:28:10;;;;;;;5.57;3.80;;;;;;;;;;5033656;28;20041;-50
2021/09/22 10:30:37;;;;;;;5.45;3.72;;;;;;;;;;5031772;28;20478;-51
2021/09/22 10:33:04;;;;;;;6.10;3.38;;;;;;;;;;5033234;28;20033;-51
2021/09/22 10:35:35;;;;;;;5.78;3.65;;;;;;;;;;5032886;28;20030;-50
2021/09/22 10:38:02;;;;;;;9.15;4.60;;;;;;;;;;5039668;28;20052;-50
2021/09/22 10:40:34;;;;;;;7.07;3.65;;;;;;;;;;5053181;28;20065;-50
2021/09/22 10:43:15;;;;;;;8.77;3.65;;;;;;;;;;5053259;28;20028;-50
2021/09/22 10:45:42;;;;;;;3.50;2.15;;;;;;;;;;5051029;28;20037;-50
2021/09/22 10:48:17;;;;;;;2.40;2.08;;;;;;;;;;5052822;28;20032;-50
2021/09/22 10:50:43;;;;;;;3.78;2.10;;;;;;;;;;5052824;28;20025;-50
2021/09/22 10:53:27;;;;;;;3.63;2.05;;;;;;;;;;5053637;28;20028;-50
2021/09/22 10:56:12;;;;;;;3.30;1.98;;;;;;;;;;5052394;28;20032;-50
2021/09/22 10:58:43;;;;;;;3.28;2.33;;;;;;;;;;5052982;28;20024;-50
2021/09/22 11:01:09;;;;;;;4.95;2.60;;;;;;;;;;5051960;28;20111;-50
2021/09/22 11:03:44;;;;;;;4.65;2.70;;;;;;;;;;5051759;28;20028;-51
2021/09/22 11:06:29;;;;;;;8.05;2.45;;;;;;;;;;5052930;28;20079;-51
2021/09/22 11:09:06;;;;;;;6.20;2.70;;;;;;;;;;5052363;28;20478;-50
2021/09/22 11:11:51;;;;;;;4.72;3.03;;;;;;;;;;5035099;28;20030;-50
2021/09/22 11:14:32;;;;;;;4.00;2.50;;;;;;;;;;5050799;28;20057;-50
2021/09/22 11:16:59;;;;;;;6.03;3.25;;;;;;;;;;5052762;28;20022;-50
2021/09/22 11:19:25;;;;;;;2.90;2.28;;;;;;;;;;5051871;28;20132;-50
2021/09/22 11:21:51;;;;;;;3.30;2.22;;;;;;;;;;5044106;28;20373;-50
2021/09/22 11:24:21;;;;;;;8.98;3.10;;;;;;;;;;5032150;28;20136;-50
2021/09/22 11:26:56;;;;;;;4.63;2.95;;;;;;;;;;5031767;28;20064;-50
2021/09/22 11:29:41;;;;;;;3.97;2.60;;;;;;;;;;5033247;28;20026;-50
2021/09/22 11:32:26;;;;;;;4.47;3.03;;;;;;;;;;5033199;28;20143;-51
2021/09/22 11:34:52;;;;;;;3.67;2.65;;;;;;;;;;5031934;28;20045;-50
2021/09/22 11:37:18;;;;;;;5.50;2.55;;;;;;;;;;5033151;28;20109;-50
2021/09/22 11:39:44;;;;;;;5.60;2.78;;;;;;;;;;5051823;28;20061;-49
2021/09/22 11:42:11;;;;;;;5.28;2.97;;;;;;;;;;5041041;28;20037;-49
2021/09/22 11:44:37;;;;;;;3.33;2.15;;;;;;;;;;5032094;28;20335;-49
2021/09/22 11:47:05;;;;;;;4.15;3.20;;;;;;;;;;5038887;28;20375;-49
2021/09/22 11:49:32;;;;;;;5.75;3.90;;;;;;;;;;5039456;28;20431;-49
2021/09/22 11:52:09;;;;;;;5.60;3.33;;;;;;;;;;5040396;28;20464;-49
2021/09/22 11:54:35;;;;;;;4.68;2.75;;;;;;;;;;5041621;28;20438;-49
2021/09/22 11:57:03;;;;;;;6.20;3.63;;;;;;;;;;5035883;28;20120;-49
2021/09/22 11:59:35;;;;;;;7.63;3.30;;;;;;;;;;5041943;28;20017;-49
2021/09/22 12:02:02;;;;;;;6.22;3.90;;;;;;;;;;5044147;28;20036;-49
2021/09/22 12:04:32;;;;;;;6.10;4.15;;;;;;;;;;5055727;28;20135;-49
2021/09/22 12:06:58;;;;;;;8.63;3.80;;;;;;;;;;5056029;28;20515;-49
2021/09/22 12:09:24;;;;;;;8.57;4.45;;;;;;;;;;5055927;28;20485;-49
2021/09/22 12:12:29;;;;;;;6.60;3.72;;;;;;;;;;5055755;28;20029;-49
2021/09/22 12:14:56;;;;;;;5.88;4.00;;;;;;;;;;5032844;28;20088;-49
2021/09/22 12:17:23;;;;;;;8.77;3.80;;;;;;;;;;5033478;28;20018;-49
2021/09/22 12:19:50;;;;;;;5.43;3.72;;;;;;;;;;5033572;28;20037;-49
2021/09/22 12:22:23;;;;;;;8.45;3.72;;;;;;;;;;5033566;28;20033;-48
2021/09/22 12:24:50;;;;;;;7.68;3.45;;;;;;;;;;5032131;28;20064;-49
2021/09/22 12:27:21;;;;;;;7.82;3.50;;;;;;;;;;5023703;28;20475;-49
2021/09/22 12:30:07;;;;;;;8.43;2.67;;;;;;;;;;5023353;28;20134;-49
2021/09/22 12:32:35;;;;;;;4.75;2.40;;;;;;;;;;5023998;28;20025;-49
2021/09/22 12:35:06;;;;;;;6.25;2.90;;;;;;;;;;5023578;28;20033;-49
2021/09/22 12:37:32;;;;;;;4.20;2.90;;;;;;;;;;5021205;28;20084;-49
2021/09/22 12:40:06;;;;;;;16.35;4.75;;;;;;;;;;5020825;28;20073;-49
2021/09/22 12:42:38;;;;;;;7.28;3.38;;;;;;;;;;5013303;28;20364;-48
2021/09/22 12:45:05;;;;;;;3.67;2.50;;;;;;;;;;5017954;28;20049;-49
2021/09/22 12:47:32;;;;;;;6.93;4.03;;;;;;;;;;5034379;28;20436;-48
2021/09/22 12:50:04;;;;;;;8.65;3.92;;;;;;;;;;5035608;28;20443;-49
2021/09/22 12:52:30;;;;;;;11.70;4.20;;;;;;;;;;5035666;28;20505;-49
2021/09/22 12:54:56;;;;;;;15.27;3.38;;;;;;;;;;5034579;28;20047;-49
2021/09/22 12:57:22;;;;;;;6.53;3.63;;;;;;;;;;5038270;28;20049;-48
2021/09/22 12:59:48;;;;;;;7.28;4.30;;;;;;;;;;5055285;28;20442;-49
2021/09/22 13:02:22;;;;;;;5.50;3.53;;;;;;;;;;5055078;28;20139;-48
2021/09/22 13:04:51;;;;;;;6.93;3.63;;;;;;;;;;5054658;28;20083;-49
2021/09/22 13:07:23;;;;;;;7.65;3.78;;;;;;;;;;5055763;28;20035;-49
2021/09/22 13:09:59;;;;;;;11.23;3.72;;;;;;;;;;5055052;28;20025;-49
2021/09/22 13:12:32;;;;;;;4.35;3.03;;;;;;;;;;5035658;28;20033;-49
2021/09/22 13:14:58;;;;;;;4.85;2.97;;;;;;;;;;5034400;28;20355;-49
2021/09/22 13:17:24;;;;;;;15.25;5.00;;;;;;;;;;5034917;28;20025;-48
2021/09/22 13:19:50;;;;;;;10.00;4.10;;;;;;;;;;5035110;28;20029;-49
2021/09/22 13:22:16;;;;;;;17.23;4.78;;;;;;;;;;5049355;28;20119;-49
2021/09/22 13:24:42;;;;;;;6.00;3.63;;;;;;;;;;5052781;28;20116;-49
2021/09/22 13:27:08;;;;;;;9.88;3.00;;;;;;;;;;5051448;28;20094;-49
2021/09/22 13:29:34;;;;;;;6.22;3.33;;;;;;;;;;5051985;28;20021;-49
2021/09/22 13:32:05;;;;;;;7.35;3.67;;;;;;;;;;5051356;28;20040;-49
2021/09/22 13:34:31;;;;;;;5.55;3.35;;;;;;;;;;5051101;28;20028;-49
2021/09/22 13:36:58;;;;;;;7.90;4.07;;;;;;;;;;5052063;28;20032;-49
2021/09/22 13:39:24;;;;;;;7.90;3.17;;;;;;;;;;5051156;28;20036;-49
2021/09/22 13:41:50;;;;;;;10.40;4.60;;;;;;;;;;5051304;28;20446;-49
2021/09/22 13:44:16;;;;;;;8.88;4.47;;;;;;;;;;5053385;28;20021;-48
2021/09/22 13:46:49;;;;;;;7.65;3.95;;;;;;;;;;5054148;28;20104;-49
2021/09/22 13:49:18;;;;;;;8.07;4.40;;;;;;;;;;5054367;28;20057;-49
2021/09/22 13:51:45;;;;;;;6.47;3.88;;;;;;;;;;5043737;28;20022;-49
2021/09/22 13:54:13;;;;;;;5.85;3.63;;;;;;;;;;5033222;28;20045;-49
2021/09/22 13:56:39;;;;;;;6.82;4.03;;;;;;;;;;5032680;28;20029;-49
2021/09/22 13:59:07;;;;;;;6.72;4.10;;;;;;;;;;5039578;28;20025;-49
2021/09/22 14:01:33;;;;;;;8.35;4.30;;;;;;;;;;5052377;28;20037;-49
2021/09/22 14:03:59;;;;;;;9.55;4.38;;;;;;;;;;5051856;28;20100;-49
2021/09/22 14:06:25;;;;;;;7.53;4.22;;;;;;;;;;5054364;28;20083;-48
2021/09/22 14:08:51;;;;;;;5.78;3.47;;;;;;;;;;5053630;28;20605;-49
2021/09/22 14:11:17;;;;;;;15.57;4.35;;;;;;;;;;5048097;28;20078;-49
2021/09/22 14:13:43;;;;;;;5.28;3.63;;;;;;;;;;5053050;28;20025;-49
2021/09/22 14:16:09;;;;;;;9.38;4.15;;;;;;;;;;5053595;28;20465;-48
2021/09/22 14:18:35;;;;;;;9.13;4.13;;;;;;;;;;5053132;28;20516;-49
2021/09/22 14:21:01;;;;;;;14.82;4.82;;;;;;;;;;5053353;28;20132;-49
2021/09/22 14:23:28;;;;;;;5.75;3.03;;;;;;;;;;5052810;28;20028;-49
2021/09/22 14:25:55;;;;;;;5.20;3.10;;;;;;;;;;5053677;28;20032;-49
2021/09/22 14:28:22;;;;;;;7.38;3.40;;;;;;;;;;5053443;28;20067;-49
2021/09/22 14:30:48;;;;;;;9.88;3.17;;;;;;;;;;5052179;28;20037;-49
2021/09/22 14:33:14;;;;;;;7.03;3.92;;;;;;;;;;5053991;28;20029;-49